PWSweather.com
Personal Weather Stations
Station Observations
KMOHERMA2
Stony Hill, Hermann, MO 65041

Stony HillHermann, MO 65041

Lat: 38.527, Lon: -91.414

Elevation: 896

Station Type: Davis Vantage Pro 2

High Low Average
Temperature 42.3°F5.7°C 14.6°F-9.7°C 23.8°F-4.6°C
Dew Point 41.0°F5.0°C 12.0°F-11.1°C 21.0°F-6.1°C
Winds 19.0 mph 30.6 kmh Calm Calm 6.0 mph WSW9.7 kmh WSW
Wind Gusts 26.0 mph41.8 kmh -- 3.0 mph4.8 kmh
Humidity 96% 78% 89%
Pressure 30.03 in1016.9 mb 29.71 in1006.1 mb -
Precipitation 0.20 in5.1 mm - -
Hour Temp Dew Point Humidity Winds Wind Gusts Pressure Precip Precip Rate Daily Precip Total
12:00 AM 40.6°F4.8°C 39.4°F4.1°C 95% 3.0 mph S4.8 kmh S -- 29.78 in1008.5 mb 0.01 in0.3 mm 0.00 in0.0 mm 0.33 in8.4 mm
12:05 AM 40.6°F4.8°C 39.4°F4.1°C 95% Calm Calm -- 29.78 in1008.5 mb 0.01 in0.3 mm 0.00 in0.0 mm 0.33 in8.4 mm
12:10 AM 40.6°F4.8°C 39.4°F4.1°C 95% Calm Calm 6.0 mph9.7 kmh 29.77 in1008.1 mb 0.02 in0.5 mm 0.12 in3.0 mm 0.34 in8.6 mm
12:15 AM 40.6°F4.8°C 39.4°F4.1°C 95% Calm Calm -- 29.77 in1008.1 mb 0.02 in0.5 mm 0.00 in0.0 mm 0.34 in8.6 mm
12:20 AM 40.7°F4.8°C 39.4°F4.1°C 95% Calm Calm -- 29.77 in1008.1 mb 0.01 in0.3 mm 0.00 in0.0 mm 0.34 in8.6 mm
12:25 AM 40.7°F4.8°C 39.4°F4.1°C 95% Calm Calm -- 29.76 in1007.8 mb 0.01 in0.3 mm 0.00 in0.0 mm 0.34 in8.6 mm
12:30 AM 40.7°F4.8°C 39.4°F4.1°C 95% 6.0 mph S9.7 kmh S -- 29.76 in1007.8 mb 0.01 in0.3 mm 0.00 in0.0 mm 0.34 in8.6 mm
12:35 AM 40.8°F4.9°C 39.6°F4.2°C 95% 3.0 mph S4.8 kmh S 7.0 mph11.3 kmh 29.76 in1007.8 mb 0.01 in0.3 mm 0.00 in0.0 mm 0.34 in8.6 mm
12:40 AM 40.8°F4.9°C 39.6°F4.2°C 95% Calm Calm -- 29.75 in1007.5 mb 0.02 in0.5 mm 0.12 in3.0 mm 0.35 in8.9 mm
12:45 AM 40.8°F4.9°C 39.6°F4.2°C 95% 3.0 mph S4.8 kmh S -- 29.75 in1007.5 mb 0.02 in0.5 mm 0.00 in0.0 mm 0.35 in8.9 mm
12:50 AM 40.9°F4.9°C 39.6°F4.2°C 95% 6.0 mph S9.7 kmh S -- 29.75 in1007.5 mb 0.02 in0.5 mm 0.00 in0.0 mm 0.35 in8.9 mm
12:55 AM 40.9°F4.9°C 39.6°F4.2°C 95% Calm Calm -- 29.74 in1007.1 mb 0.02 in0.5 mm 0.00 in0.0 mm 0.35 in8.9 mm
01:00 AM 40.9°F4.9°C 39.6°F4.2°C 95% 5.0 mph S8.0 kmh S 8.0 mph12.9 kmh 29.74 in1007.1 mb 0.02 in0.5 mm 0.00 in0.0 mm 0.03 in0.8 mm
01:05 AM 41.0°F5.0°C 39.7°F4.3°C 95% 4.0 mph S6.4 kmh S -- 29.73 in1006.8 mb 0.02 in0.5 mm 0.00 in0.0 mm 0.03 in0.8 mm
01:10 AM 41.0°F5.0°C 39.7°F4.3°C 95% Calm Calm -- 29.73 in1006.8 mb 0.01 in0.3 mm 0.00 in0.0 mm 0.03 in0.8 mm
01:15 AM 40.9°F4.9°C 39.6°F4.2°C 95% 3.0 mph S4.8 kmh S -- 29.73 in1006.8 mb 0.01 in0.3 mm 0.00 in0.0 mm 0.03 in0.8 mm
01:20 AM 41.0°F5.0°C 39.7°F4.3°C 95% Calm Calm -- 29.73 in1006.8 mb 0.01 in0.3 mm 0.00 in0.0 mm 0.03 in0.8 mm
01:25 AM 41.0°F5.0°C 39.7°F4.3°C 95% 8.0 mph S12.9 kmh S 9.0 mph14.5 kmh 29.73 in1006.8 mb 0.01 in0.3 mm 0.00 in0.0 mm 0.03 in0.8 mm
01:30 AM 41.1°F5.1°C 39.9°F4.4°C 95% 9.0 mph S14.5 kmh S -- 29.73 in1006.8 mb 0.01 in0.3 mm 0.00 in0.0 mm 0.03 in0.8 mm
01:35 AM 41.0°F5.0°C 39.7°F4.3°C 95% 5.0 mph S8.0 kmh S -- 29.73 in1006.8 mb 0.02 in0.5 mm 0.12 in3.0 mm 0.01 in0.3 mm
01:40 AM 41.1°F5.1°C 39.9°F4.4°C 95% 7.0 mph S11.3 kmh S -- 29.73 in1006.8 mb 0.01 in0.3 mm 0.00 in0.0 mm 0.01 in0.3 mm
01:45 AM 41.1°F5.1°C 39.9°F4.4°C 95% 2.0 mph S3.2 kmh S -- 29.72 in1006.4 mb 0.02 in0.5 mm 0.12 in3.0 mm 0.02 in0.5 mm
01:50 AM 41.1°F5.1°C 39.9°F4.4°C 95% 5.0 mph S8.0 kmh S 10.0 mph16.1 kmh 29.72 in1006.4 mb 0.02 in0.5 mm 0.00 in0.0 mm 0.02 in0.5 mm
01:55 AM 41.1°F5.1°C 39.9°F4.4°C 95% 9.0 mph S14.5 kmh S -- 29.71 in1006.1 mb 0.02 in0.5 mm 0.00 in0.0 mm 0.02 in0.5 mm
02:00 AM 41.2°F5.1°C 39.9°F4.4°C 95% 8.0 mph S12.9 kmh S -- 29.73 in1006.8 mb 0.02 in0.5 mm 0.00 in0.0 mm 0.02 in0.5 mm
02:05 AM 41.2°F5.1°C 39.9°F4.4°C 95% 11.0 mph S17.7 kmh S -- 29.73 in1006.8 mb 0.03 in0.8 mm 0.12 in3.0 mm 0.03 in0.8 mm
02:10 AM 41.3°F5.2°C 40.1°F4.5°C 95% 5.0 mph S8.0 kmh S -- 29.73 in1006.8 mb 0.04 in1.0 mm 0.12 in3.0 mm 0.04 in1.0 mm
02:15 AM 41.4°F5.2°C 40.1°F4.5°C 95% 3.0 mph SSW4.8 kmh SSW 12.0 mph19.3 kmh 29.72 in1006.4 mb 0.06 in1.5 mm 0.24 in6.1 mm 0.06 in1.5 mm
02:20 AM 41.5°F5.3°C 40.3°F4.6°C 95% 11.0 mph S17.7 kmh S -- 29.71 in1006.1 mb 0.07 in1.8 mm 0.12 in3.0 mm 0.07 in1.8 mm
02:25 AM 41.6°F5.3°C 40.3°F4.6°C 95% 3.0 mph S4.8 kmh S -- 29.72 in1006.4 mb 0.08 in2.0 mm 0.12 in3.0 mm 0.08 in2.0 mm
02:30 AM 41.6°F5.3°C 40.3°F4.6°C 95% 4.0 mph SSW6.4 kmh SSW -- 29.72 in1006.4 mb 0.09 in2.3 mm 0.12 in3.0 mm 0.09 in2.3 mm
02:35 AM 41.6°F5.3°C 40.3°F4.6°C 95% 4.0 mph SSW6.4 kmh SSW -- 29.73 in1006.8 mb 0.09 in2.3 mm 0.00 in0.0 mm 0.10 in2.5 mm
02:40 AM 41.6°F5.3°C 40.3°F4.6°C 95% 3.0 mph SSW4.8 kmh SSW 10.0 mph16.1 kmh 29.71 in1006.1 mb 0.09 in2.3 mm 0.00 in0.0 mm 0.10 in2.5 mm
02:45 AM 41.6°F5.3°C 40.3°F4.6°C 95% 6.0 mph SSW9.7 kmh SSW -- 29.72 in1006.4 mb 0.08 in2.0 mm 0.00 in0.0 mm 0.10 in2.5 mm
02:50 AM 41.6°F5.3°C 40.3°F4.6°C 95% 5.0 mph SSW8.0 kmh SSW -- 29.73 in1006.8 mb 0.09 in2.3 mm 0.12 in3.0 mm 0.11 in2.8 mm
02:55 AM 41.7°F5.4°C 40.5°F4.7°C 95% 4.0 mph SW6.4 kmh SW -- 29.75 in1007.5 mb 0.09 in2.3 mm 0.00 in0.0 mm 0.11 in2.8 mm
03:00 AM 41.7°F5.4°C 40.5°F4.7°C 95% 7.0 mph SSW11.3 kmh SSW -- 29.75 in1007.5 mb 0.09 in2.3 mm 0.00 in0.0 mm 0.11 in2.8 mm
03:05 AM 42.0°F5.6°C 40.8°F4.9°C 95% 5.0 mph SW8.0 kmh SW 14.0 mph22.5 kmh 29.73 in1006.8 mb 0.10 in2.5 mm 0.12 in3.0 mm 0.13 in3.3 mm
03:10 AM 42.0°F5.6°C 40.8°F4.9°C 95% 5.0 mph SSW8.0 kmh SSW -- 29.73 in1006.8 mb 0.10 in2.5 mm 0.00 in0.0 mm 0.14 in3.6 mm
03:15 AM 42.2°F5.7°C 41.0°F5.0°C 95% 4.0 mph SSW6.4 kmh SSW -- 29.72 in1006.4 mb 0.09 in2.3 mm 0.00 in0.0 mm 0.15 in3.8 mm
03:20 AM 42.2°F5.7°C 41.0°F5.0°C 95% 2.0 mph SSW3.2 kmh SSW -- 29.71 in1006.1 mb 0.08 in2.0 mm 0.00 in0.0 mm 0.15 in3.8 mm
03:25 AM 42.2°F5.7°C 41.0°F5.0°C 95% Calm Calm -- 29.71 in1006.1 mb 0.08 in2.0 mm 0.00 in0.0 mm 0.16 in4.1 mm
03:30 AM 42.1°F5.6°C 40.8°F4.9°C 95% 6.0 mph SW9.7 kmh SW 10.0 mph16.1 kmh 29.73 in1006.8 mb 0.07 in1.8 mm 0.00 in0.0 mm 0.16 in4.1 mm
03:35 AM 42.1°F5.6°C 40.8°F4.9°C 95% 3.0 mph SW4.8 kmh SW -- 29.73 in1006.8 mb 0.06 in1.5 mm 0.00 in0.0 mm 0.16 in4.1 mm
03:40 AM 42.2°F5.7°C 41.0°F5.0°C 95% 7.0 mph SW11.3 kmh SW -- 29.72 in1006.4 mb 0.06 in1.5 mm 0.00 in0.0 mm 0.16 in4.1 mm
03:45 AM 42.3°F5.7°C 41.0°F5.0°C 95% Calm Calm -- 29.71 in1006.1 mb 0.07 in1.8 mm 0.12 in3.0 mm 0.17 in4.3 mm
03:50 AM 42.2°F5.7°C 41.0°F5.0°C 95% 5.0 mph SW8.0 kmh SW -- 29.72 in1006.4 mb 0.06 in1.5 mm 0.00 in0.0 mm 0.17 in4.3 mm
03:55 AM 42.3°F5.7°C 41.0°F5.0°C 95% 6.0 mph SW9.7 kmh SW 17.0 mph27.4 kmh 29.72 in1006.4 mb 0.06 in1.5 mm 0.00 in0.0 mm 0.17 in4.3 mm
04:00 AM 42.2°F5.7°C 41.0°F5.0°C 95% 12.0 mph SW19.3 kmh SW -- 29.73 in1006.8 mb 0.06 in1.5 mm 0.00 in0.0 mm 0.17 in4.3 mm
04:05 AM 42.2°F5.7°C 41.0°F5.0°C 95% 9.0 mph SW14.5 kmh SW -- 29.73 in1006.8 mb 0.04 in1.0 mm 0.00 in0.0 mm 0.17 in4.3 mm
04:10 AM 42.0°F5.6°C 40.8°F4.9°C 95% 11.0 mph WSW17.7 kmh WSW -- 29.73 in1006.8 mb 0.04 in1.0 mm 0.00 in0.0 mm 0.18 in4.6 mm
04:15 AM 41.3°F5.2°C 40.3°F4.6°C 96% 2.0 mph WSW3.2 kmh WSW -- 29.73 in1006.8 mb 0.03 in0.8 mm 0.00 in0.0 mm 0.18 in4.6 mm
04:20 AM 40.1°F4.5°C 38.8°F3.8°C 95% 10.0 mph WSW16.1 kmh WSW 20.0 mph32.2 kmh 29.73 in1006.8 mb 0.03 in0.8 mm 0.00 in0.0 mm 0.18 in4.6 mm
04:25 AM 38.1°F3.4°C 36.9°F2.7°C 95% 3.0 mph WSW4.8 kmh WSW -- 29.72 in1006.4 mb 0.03 in0.8 mm 0.00 in0.0 mm 0.19 in4.8 mm
04:30 AM 36.5°F2.5°C 35.2°F1.8°C 95% 11.0 mph WSW17.7 kmh WSW -- 29.72 in1006.4 mb 0.03 in0.8 mm 0.00 in0.0 mm 0.19 in4.8 mm
04:35 AM 35.3°F1.8°C 34.0°F1.1°C 95% 11.0 mph WSW17.7 kmh WSW -- 29.75 in1007.5 mb 0.04 in1.0 mm 0.12 in3.0 mm 0.20 in5.1 mm
04:40 AM 34.3°F1.3°C 33.1°F0.6°C 95% 7.0 mph WSW11.3 kmh WSW -- 29.77 in1008.1 mb 0.04 in1.0 mm 0.00 in0.0 mm 0.20 in5.1 mm
04:45 AM 33.2°F0.7°C 32.0°F0.0°C 95% 8.0 mph WSW12.9 kmh WSW 24.0 mph38.6 kmh 29.77 in1008.1 mb 0.03 in0.8 mm 0.00 in0.0 mm 0.20 in5.1 mm
04:50 AM 32.4°F0.2°C 31.1°F-0.5°C 95% 18.0 mph SW29.0 kmh SW -- 29.77 in1008.1 mb 0.03 in0.8 mm 0.00 in0.0 mm 0.20 in5.1 mm
04:55 AM 31.7°F-0.2°C 30.4°F-0.9°C 95% 8.0 mph WSW12.9 kmh WSW -- 29.77 in1008.1 mb 0.03 in0.8 mm 0.00 in0.0 mm 0.20 in5.1 mm
05:00 AM 31.3°F-0.4°C 30.0°F-1.1°C 95% 7.0 mph W11.3 kmh W -- 29.77 in1008.1 mb 0.03 in0.8 mm 0.00 in0.0 mm 0.20 in5.1 mm
05:05 AM 30.8°F-0.7°C 29.5°F-1.4°C 95% 7.0 mph WSW11.3 kmh WSW -- 29.77 in1008.1 mb 0.03 in0.8 mm 0.00 in0.0 mm 0.20 in5.1 mm
05:10 AM 30.6°F-0.8°C 29.3°F-1.5°C 95% 12.0 mph WSW19.3 kmh WSW 24.0 mph38.6 kmh 29.78 in1008.5 mb 0.02 in0.5 mm 0.00 in0.0 mm 0.20 in5.1 mm
05:15 AM 30.3°F-0.9°C 29.1°F-1.6°C 95% 8.0 mph WSW12.9 kmh WSW -- 29.79 in1008.8 mb 0.02 in0.5 mm 0.00 in0.0 mm 0.20 in5.1 mm
05:20 AM 30.0°F-1.1°C 28.8°F-1.8°C 95% 9.0 mph W14.5 kmh W -- 29.80 in1009.1 mb 0.02 in0.5 mm 0.00 in0.0 mm 0.20 in5.1 mm
05:25 AM 29.6°F-1.3°C 28.4°F-2.0°C 95% 9.0 mph WSW14.5 kmh WSW -- 29.79 in1008.8 mb 0.01 in0.3 mm 0.00 in0.0 mm 0.20 in5.1 mm
05:30 AM 29.2°F-1.6°C 27.9°F-2.3°C 95% 15.0 mph SW24.1 kmh SW -- 29.80 in1009.1 mb 0.01 in0.3 mm 0.00 in0.0 mm 0.20 in5.1 mm
05:35 AM 29.0°F-1.7°C 27.7°F-2.4°C 95% 17.0 mph WSW27.4 kmh WSW 24.0 mph38.6 kmh 29.79 in1008.8 mb 0.00 in0.0 mm 0.00 in0.0 mm 0.20 in5.1 mm
05:40 AM 28.8°F-1.8°C 27.5°F-2.5°C 95% 16.0 mph WSW25.7 kmh WSW -- 29.78 in1008.5 mb 0.00 in0.0 mm 0.00 in0.0 mm 0.20 in5.1 mm
05:45 AM 28.6°F-1.9°C 27.3°F-2.6°C 95% 14.0 mph W22.5 kmh W -- 29.79 in1008.8 mb 0.00 in0.0 mm 0.00 in0.0 mm 0.20 in5.1 mm
05:50 AM 28.5°F-1.9°C 27.3°F-2.6°C 95% 7.0 mph W11.3 kmh W -- 29.80 in1009.1 mb 0.00 in0.0 mm 0.00 in0.0 mm 0.20 in5.1 mm
05:55 AM 28.4°F-2.0°C 27.1°F-2.7°C 95% 16.0 mph W25.7 kmh W -- 29.82 in1009.8 mb 0.00 in0.0 mm 0.00 in0.0 mm 0.20 in5.1 mm
06:00 AM 28.3°F-2.1°C 27.0°F-2.8°C 95% 4.0 mph W6.4 kmh W 22.0 mph35.4 kmh 29.82 in1009.8 mb 0.00 in0.0 mm 0.00 in0.0 mm 0.20 in5.1 mm
06:05 AM 28.2°F-2.1°C 27.0°F-2.8°C 95% 15.0 mph W24.1 kmh W -- 29.83 in1010.2 mb 0.00 in0.0 mm 0.00 in0.0 mm 0.20 in5.1 mm
06:10 AM 28.0°F-2.2°C 26.8°F-2.9°C 95% 13.0 mph W20.9 kmh W -- 29.82 in1009.8 mb 0.00 in0.0 mm 0.00 in0.0 mm 0.20 in5.1 mm
06:15 AM 27.6°F-2.4°C 26.4°F-3.1°C 95% 13.0 mph W20.9 kmh W -- 29.83 in1010.2 mb 0.00 in0.0 mm 0.00 in0.0 mm 0.20 in5.1 mm
06:20 AM 27.4°F-2.6°C 26.1°F-3.3°C 95% 9.0 mph W14.5 kmh W -- 29.83 in1010.2 mb 0.00 in0.0 mm 0.00 in0.0 mm 0.20 in5.1 mm
06:25 AM 27.2°F-2.7°C 25.9°F-3.4°C 95% 10.0 mph W16.1 kmh W 22.0 mph35.4 kmh 29.84 in1010.5 mb 0.00 in0.0 mm 0.00 in0.0 mm 0.20 in5.1 mm
06:30 AM 27.0°F-2.8°C 25.7°F-3.5°C 95% 12.0 mph W19.3 kmh W -- 29.83 in1010.2 mb 0.00 in0.0 mm 0.00 in0.0 mm 0.20 in5.1 mm
06:35 AM 26.7°F-2.9°C 25.5°F-3.6°C 95% 11.0 mph W17.7 kmh W -- 29.85 in1010.8 mb 0.00 in0.0 mm 0.00 in0.0 mm 0.20 in5.1 mm
06:40 AM 26.6°F-3.0°C 25.3°F-3.7°C 95% 13.0 mph W20.9 kmh W -- 29.85 in1010.8 mb 0.00 in0.0 mm 0.00 in0.0 mm 0.20 in5.1 mm
06:45 AM 26.3°F-3.2°C 25.0°F-3.9°C 95% 19.0 mph W30.6 kmh W -- 29.85 in1010.8 mb 0.00 in0.0 mm 0.00 in0.0 mm 0.20 in5.1 mm
06:50 AM 26.0°F-3.3°C 24.8°F-4.0°C 95% 5.0 mph W8.0 kmh W 20.0 mph32.2 kmh 29.85 in1010.8 mb 0.00 in0.0 mm 0.00 in0.0 mm 0.20 in5.1 mm
06:55 AM 25.8°F-3.4°C 24.6°F-4.1°C 95% 7.0 mph W11.3 kmh W -- 29.86 in1011.2 mb 0.00 in0.0 mm 0.00 in0.0 mm 0.20 in5.1 mm
07:00 AM 25.6°F-3.6°C 24.3°F-4.3°C 95% 13.0 mph W20.9 kmh W -- 29.87 in1011.5 mb 0.00 in0.0 mm 0.00 in0.0 mm 0.20 in5.1 mm
07:05 AM 25.3°F-3.7°C 24.1°F-4.4°C 95% 7.0 mph W11.3 kmh W -- 29.87 in1011.5 mb 0.00 in0.0 mm 0.00 in0.0 mm 0.20 in5.1 mm
07:10 AM 24.9°F-3.9°C 23.5°F-4.7°C 94% 13.0 mph W20.9 kmh W -- 29.88 in1011.9 mb 0.00 in0.0 mm 0.00 in0.0 mm 0.20 in5.1 mm
07:15 AM 24.7°F-4.1°C 23.2°F-4.9°C 94% 6.0 mph W9.7 kmh W 24.0 mph38.6 kmh 29.88 in1011.9 mb 0.00 in0.0 mm 0.00 in0.0 mm 0.20 in5.1 mm
07:20 AM 24.5°F-4.2°C 23.2°F-4.9°C 95% 5.0 mph W8.0 kmh W -- 29.88 in1011.9 mb 0.00 in0.0 mm 0.00 in0.0 mm 0.20 in5.1 mm
07:25 AM 24.1°F-4.4°C 22.8°F-5.1°C 95% 5.0 mph W8.0 kmh W -- 29.88 in1011.9 mb 0.00 in0.0 mm 0.00 in0.0 mm 0.20 in5.1 mm
07:30 AM 23.9°F-4.5°C 22.5°F-5.3°C 94% 12.0 mph W19.3 kmh W -- 29.88 in1011.9 mb 0.00 in0.0 mm 0.00 in0.0 mm 0.20 in5.1 mm
07:35 AM 23.6°F-4.7°C 22.1°F-5.5°C 94% 9.0 mph W14.5 kmh W -- 29.88 in1011.9 mb 0.00 in0.0 mm 0.00 in0.0 mm 0.20 in5.1 mm
07:40 AM 23.4°F-4.8°C 22.1°F-5.5°C 95% 5.0 mph W8.0 kmh W 20.0 mph32.2 kmh 29.88 in1011.9 mb 0.00 in0.0 mm 0.00 in0.0 mm 0.20 in5.1 mm
07:45 AM 23.2°F-4.9°C 21.7°F-5.7°C 94% 5.0 mph W8.0 kmh W -- 29.88 in1011.9 mb 0.00 in0.0 mm 0.00 in0.0 mm 0.20 in5.1 mm
07:50 AM 23.1°F-4.9°C 21.7°F-5.7°C 94% 17.0 mph W27.4 kmh W -- 29.87 in1011.5 mb 0.00 in0.0 mm 0.00 in0.0 mm 0.20 in5.1 mm
07:55 AM 22.9°F-5.1°C 21.4°F-5.9°C 94% 14.0 mph W22.5 kmh W -- 29.88 in1011.9 mb 0.00 in0.0 mm 0.00 in0.0 mm 0.20 in5.1 mm
08:00 AM 22.7°F-5.2°C 21.2°F-6.0°C 94% 11.0 mph W17.7 kmh W -- 29.88 in1011.9 mb 0.00 in0.0 mm 0.00 in0.0 mm 0.20 in5.1 mm
08:05 AM 22.6°F-5.2°C 21.2°F-6.0°C 94% 3.0 mph W4.8 kmh W 20.0 mph32.2 kmh 29.88 in1011.9 mb 0.00 in0.0 mm 0.00 in0.0 mm 0.20 in5.1 mm
08:10 AM 22.5°F-5.3°C 21.0°F-6.1°C 94% 13.0 mph W20.9 kmh W -- 29.89 in1012.2 mb 0.00 in0.0 mm 0.00 in0.0 mm 0.20 in5.1 mm
08:15 AM 22.3°F-5.4°C 20.8°F-6.2°C 94% 13.0 mph W20.9 kmh W -- 29.89 in1012.2 mb 0.00 in0.0 mm 0.00 in0.0 mm 0.20 in5.1 mm
08:20 AM 22.1°F-5.5°C 20.7°F-6.3°C 94% 4.0 mph W6.4 kmh W -- 29.90 in1012.5 mb 0.00 in0.0 mm 0.00 in0.0 mm 0.20 in5.1 mm
08:25 AM 22.0°F-5.6°C 20.5°F-6.4°C 94% 13.0 mph W20.9 kmh W -- 29.90 in1012.5 mb 0.00 in0.0 mm 0.00 in0.0 mm 0.20 in5.1 mm
08:30 AM 21.8°F-5.7°C 20.3°F-6.5°C 94% 7.0 mph W11.3 kmh W 20.0 mph32.2 kmh 29.91 in1012.9 mb 0.00 in0.0 mm 0.00 in0.0 mm 0.20 in5.1 mm
08:35 AM 21.7°F-5.7°C 20.3°F-6.5°C 94% 7.0 mph W11.3 kmh W -- 29.91 in1012.9 mb 0.00 in0.0 mm 0.00 in0.0 mm 0.20 in5.1 mm
08:40 AM 21.5°F-5.8°C 20.1°F-6.6°C 94% 5.0 mph W8.0 kmh W -- 29.91 in1012.9 mb 0.00 in0.0 mm 0.00 in0.0 mm 0.20 in5.1 mm
08:45 AM 21.4°F-5.9°C 19.9°F-6.7°C 94% 5.0 mph W8.0 kmh W -- 29.91 in1012.9 mb 0.00 in0.0 mm 0.00 in0.0 mm 0.20 in5.1 mm
08:50 AM 21.3°F-5.9°C 19.9°F-6.7°C 94% 14.0 mph W22.5 kmh W -- 29.91 in1012.9 mb 0.00 in0.0 mm 0.00 in0.0 mm 0.20 in5.1 mm
08:55 AM 21.2°F-6.0°C 19.8°F-6.8°C 94% 11.0 mph W17.7 kmh W 17.0 mph27.4 kmh 29.91 in1012.9 mb 0.00 in0.0 mm 0.00 in0.0 mm 0.20 in5.1 mm
09:00 AM 21.1°F-6.1°C 19.6°F-6.9°C 94% 9.0 mph W14.5 kmh W -- 29.92 in1013.2 mb 0.00 in0.0 mm 0.00 in0.0 mm 0.20 in5.1 mm
09:05 AM 21.0°F-6.1°C 19.6°F-6.9°C 94% 10.0 mph W16.1 kmh W -- 29.92 in1013.2 mb 0.00 in0.0 mm 0.00 in0.0 mm 0.20 in5.1 mm
09:10 AM 21.1°F-6.1°C 19.6°F-6.9°C 94% 10.0 mph W16.1 kmh W -- 29.93 in1013.5 mb 0.00 in0.0 mm 0.00 in0.0 mm 0.20 in5.1 mm
09:15 AM 21.1°F-6.1°C 19.6°F-6.9°C 94% 13.0 mph W20.9 kmh W -- 29.93 in1013.5 mb 0.00 in0.0 mm 0.00 in0.0 mm 0.20 in5.1 mm
09:20 AM 20.9°F-6.2°C 19.4°F-7.0°C 94% 6.0 mph W9.7 kmh W 20.0 mph32.2 kmh 29.93 in1013.5 mb 0.00 in0.0 mm 0.00 in0.0 mm 0.20 in5.1 mm
09:25 AM 20.9°F-6.2°C 19.2°F-7.1°C 93% 14.0 mph W22.5 kmh W -- 29.94 in1013.9 mb 0.00 in0.0 mm 0.00 in0.0 mm 0.20 in5.1 mm
09:30 AM 20.8°F-6.2°C 19.2°F-7.1°C 93% 10.0 mph W16.1 kmh W -- 29.94 in1013.9 mb 0.00 in0.0 mm 0.00 in0.0 mm 0.20 in5.1 mm
09:35 AM 20.7°F-6.3°C 19.0°F-7.2°C 93% 15.0 mph W24.1 kmh W -- 29.94 in1013.9 mb 0.00 in0.0 mm 0.00 in0.0 mm 0.20 in5.1 mm
09:40 AM 20.6°F-6.3°C 19.0°F-7.2°C 93% 10.0 mph W16.1 kmh W -- 29.94 in1013.9 mb 0.00 in0.0 mm 0.00 in0.0 mm 0.20 in5.1 mm
09:45 AM 20.6°F-6.3°C 19.0°F-7.2°C 93% 5.0 mph W8.0 kmh W 17.0 mph27.4 kmh 29.94 in1013.9 mb 0.00 in0.0 mm 0.00 in0.0 mm 0.20 in5.1 mm
09:50 AM 20.5°F-6.4°C 18.9°F-7.3°C 93% 8.0 mph W12.9 kmh W -- 29.94 in1013.9 mb 0.00 in0.0 mm 0.00 in0.0 mm 0.20 in5.1 mm
09:55 AM 20.6°F-6.3°C 19.0°F-7.2°C 93% 3.0 mph W4.8 kmh W -- 29.94 in1013.9 mb 0.00 in0.0 mm 0.00 in0.0 mm 0.20 in5.1 mm
10:00 AM 20.6°F-6.3°C 19.0°F-7.2°C 93% 15.0 mph W24.1 kmh W -- 29.94 in1013.9 mb 0.00 in0.0 mm 0.00 in0.0 mm 0.20 in5.1 mm
10:05 AM 20.5°F-6.4°C 18.9°F-7.3°C 93% 5.0 mph W8.0 kmh W -- 29.94 in1013.9 mb 0.00 in0.0 mm 0.00 in0.0 mm 0.20 in5.1 mm
10:10 AM 20.5°F-6.4°C 18.5°F-7.5°C 92% 4.0 mph W6.4 kmh W 19.0 mph30.6 kmh 29.94 in1013.9 mb 0.00 in0.0 mm 0.00 in0.0 mm 0.20 in5.1 mm
10:15 AM 20.6°F-6.3°C 18.7°F-7.4°C 92% 11.0 mph W17.7 kmh W -- 29.94 in1013.9 mb 0.00 in0.0 mm 0.00 in0.0 mm 0.20 in5.1 mm
10:20 AM 20.6°F-6.3°C 18.7°F-7.4°C 92% 7.0 mph W11.3 kmh W -- 29.94 in1013.9 mb 0.00 in0.0 mm 0.00 in0.0 mm 0.20 in5.1 mm
10:25 AM 20.4°F-6.4°C 18.5°F-7.5°C 92% 12.0 mph W19.3 kmh W -- 29.94 in1013.9 mb 0.00 in0.0 mm 0.00 in0.0 mm 0.20 in5.1 mm
10:30 AM 20.4°F-6.4°C 18.5°F-7.5°C 92% 4.0 mph W6.4 kmh W -- 29.95 in1014.2 mb 0.00 in0.0 mm 0.00 in0.0 mm 0.20 in5.1 mm
10:35 AM 20.4°F-6.4°C 18.5°F-7.5°C 92% 7.0 mph W11.3 kmh W 21.0 mph33.8 kmh 29.94 in1013.9 mb 0.00 in0.0 mm 0.00 in0.0 mm 0.20 in5.1 mm
10:40 AM 20.4°F-6.4°C 18.5°F-7.5°C 92% 6.0 mph W9.7 kmh W -- 29.95 in1014.2 mb 0.00 in0.0 mm 0.00 in0.0 mm 0.20 in5.1 mm
10:45 AM 20.5°F-6.4°C 18.5°F-7.5°C 92% 4.0 mph W6.4 kmh W -- 29.95 in1014.2 mb 0.00 in0.0 mm 0.00 in0.0 mm 0.20 in5.1 mm
10:50 AM 20.5°F-6.4°C 18.3°F-7.6°C 91% 11.0 mph W17.7 kmh W -- 29.95 in1014.2 mb 0.00 in0.0 mm 0.00 in0.0 mm 0.20 in5.1 mm
10:55 AM 20.5°F-6.4°C 18.3°F-7.6°C 91% 12.0 mph W19.3 kmh W -- 29.95 in1014.2 mb 0.00 in0.0 mm 0.00 in0.0 mm 0.20 in5.1 mm
11:00 AM 20.4°F-6.4°C 18.3°F-7.6°C 91% 4.0 mph W6.4 kmh W 20.0 mph32.2 kmh 29.95 in1014.2 mb 0.00 in0.0 mm 0.00 in0.0 mm 0.20 in5.1 mm
11:05 AM 20.4°F-6.4°C 18.3°F-7.6°C 91% 13.0 mph W20.9 kmh W -- 29.95 in1014.2 mb 0.00 in0.0 mm 0.00 in0.0 mm 0.20 in5.1 mm
11:10 AM 20.3°F-6.5°C 18.1°F-7.7°C 91% 13.0 mph W20.9 kmh W -- 29.95 in1014.2 mb 0.00 in0.0 mm 0.00 in0.0 mm 0.20 in5.1 mm
11:15 AM 20.3°F-6.5°C 18.1°F-7.7°C 91% 14.0 mph W22.5 kmh W -- 29.95 in1014.2 mb 0.00 in0.0 mm 0.00 in0.0 mm 0.20 in5.1 mm
11:20 AM 20.3°F-6.5°C 17.8°F-7.9°C 90% 15.0 mph W24.1 kmh W -- 29.94 in1013.9 mb 0.00 in0.0 mm 0.00 in0.0 mm 0.20 in5.1 mm
11:25 AM 20.2°F-6.6°C 17.6°F-8.0°C 90% 12.0 mph W19.3 kmh W 26.0 mph41.8 kmh 29.95 in1014.2 mb 0.00 in0.0 mm 0.00 in0.0 mm 0.20 in5.1 mm
11:30 AM 20.1°F-6.6°C 17.6°F-8.0°C 90% 15.0 mph W24.1 kmh W -- 29.95 in1014.2 mb 0.00 in0.0 mm 0.00 in0.0 mm 0.20 in5.1 mm
11:35 AM 20.2°F-6.6°C 17.6°F-8.0°C 90% 9.0 mph W14.5 kmh W -- 29.95 in1014.2 mb 0.00 in0.0 mm 0.00 in0.0 mm 0.20 in5.1 mm
11:40 AM 20.2°F-6.6°C 17.6°F-8.0°C 90% 7.0 mph W11.3 kmh W -- 29.95 in1014.2 mb 0.00 in0.0 mm 0.00 in0.0 mm 0.20 in5.1 mm
11:45 AM 20.1°F-6.6°C 17.4°F-8.1°C 89% 6.0 mph W9.7 kmh W -- 29.95 in1014.2 mb 0.00 in0.0 mm 0.00 in0.0 mm 0.20 in5.1 mm
11:50 AM 20.0°F-6.7°C 17.2°F-8.2°C 89% 10.0 mph W16.1 kmh W 20.0 mph32.2 kmh 29.95 in1014.2 mb 0.00 in0.0 mm 0.00 in0.0 mm 0.20 in5.1 mm
11:55 AM 20.0°F-6.7°C 17.2°F-8.2°C 89% 7.0 mph W11.3 kmh W -- 29.95 in1014.2 mb 0.00 in0.0 mm 0.00 in0.0 mm 0.20 in5.1 mm
12:00 PM 20.0°F-6.7°C 17.2°F-8.2°C 89% 15.0 mph W24.1 kmh W -- 29.95 in1014.2 mb 0.00 in0.0 mm 0.00 in0.0 mm 0.20 in5.1 mm
12:05 PM 19.9°F-6.7°C 17.1°F-8.3°C 88% 7.0 mph W11.3 kmh W -- 29.96 in1014.6 mb 0.00 in0.0 mm 0.00 in0.0 mm 0.20 in5.1 mm
12:10 PM 19.9°F-6.7°C 17.1°F-8.3°C 88% 12.0 mph W19.3 kmh W -- 29.95 in1014.2 mb 0.00 in0.0 mm 0.00 in0.0 mm 0.20 in5.1 mm
12:15 PM 19.8°F-6.8°C 16.9°F-8.4°C 88% 10.0 mph W16.1 kmh W 18.0 mph29.0 kmh 29.95 in1014.2 mb 0.00 in0.0 mm 0.00 in0.0 mm 0.20 in5.1 mm
12:20 PM 19.9°F-6.7°C 17.1°F-8.3°C 88% 5.0 mph W8.0 kmh W -- 29.95 in1014.2 mb 0.00 in0.0 mm 0.00 in0.0 mm 0.20 in5.1 mm
12:25 PM 20.0°F-6.7°C 17.1°F-8.3°C 88% 10.0 mph W16.1 kmh W -- 29.95 in1014.2 mb 0.00 in0.0 mm 0.00 in0.0 mm 0.20 in5.1 mm
12:30 PM 20.1°F-6.6°C 17.1°F-8.3°C 88% 6.0 mph W9.7 kmh W -- 29.95 in1014.2 mb 0.00 in0.0 mm 0.00 in0.0 mm 0.20 in5.1 mm
12:35 PM 20.5°F-6.4°C 17.4°F-8.1°C 88% 10.0 mph W16.1 kmh W -- 29.95 in1014.2 mb 0.00 in0.0 mm 0.00 in0.0 mm 0.20 in5.1 mm
12:40 PM 20.1°F-6.6°C 17.1°F-8.3°C 88% 15.0 mph W24.1 kmh W 21.0 mph33.8 kmh 29.95 in1014.2 mb 0.00 in0.0 mm 0.00 in0.0 mm 0.20 in5.1 mm
12:45 PM 20.0°F-6.7°C 16.7°F-8.5°C 87% 11.0 mph W17.7 kmh W -- 29.94 in1013.9 mb 0.00 in0.0 mm 0.00 in0.0 mm 0.20 in5.1 mm
12:50 PM 20.0°F-6.7°C 16.7°F-8.5°C 87% 10.0 mph W16.1 kmh W -- 29.94 in1013.9 mb 0.00 in0.0 mm 0.00 in0.0 mm 0.20 in5.1 mm
12:55 PM 20.0°F-6.7°C 16.7°F-8.5°C 87% 17.0 mph W27.4 kmh W -- 29.94 in1013.9 mb 0.00 in0.0 mm 0.00 in0.0 mm 0.20 in5.1 mm
01:00 PM 20.0°F-6.7°C 16.7°F-8.5°C 87% 3.0 mph W4.8 kmh W -- 29.95 in1014.2 mb 0.00 in0.0 mm 0.00 in0.0 mm 0.20 in5.1 mm
01:05 PM 20.0°F-6.7°C 16.7°F-8.5°C 87% 10.0 mph W16.1 kmh W 19.0 mph30.6 kmh 29.95 in1014.2 mb 0.00 in0.0 mm 0.00 in0.0 mm 0.20 in5.1 mm
01:10 PM 19.8°F-6.8°C 16.5°F-8.6°C 87% 10.0 mph W16.1 kmh W -- 29.94 in1013.9 mb 0.00 in0.0 mm 0.00 in0.0 mm 0.20 in5.1 mm
01:15 PM 19.6°F-6.9°C 16.3°F-8.7°C 87% 6.0 mph W9.7 kmh W -- 29.94 in1013.9 mb 0.00 in0.0 mm 0.00 in0.0 mm 0.20 in5.1 mm
01:20 PM 19.6°F-6.9°C 16.3°F-8.7°C 87% 6.0 mph W9.7 kmh W -- 29.93 in1013.5 mb 0.00 in0.0 mm 0.00 in0.0 mm 0.20 in5.1 mm
01:25 PM 19.4°F-7.0°C 16.2°F-8.8°C 87% 5.0 mph W8.0 kmh W -- 29.93 in1013.5 mb 0.00 in0.0 mm 0.00 in0.0 mm 0.20 in5.1 mm
01:30 PM 19.3°F-7.1°C 16.0°F-8.9°C 87% 11.0 mph W17.7 kmh W 20.0 mph32.2 kmh 29.93 in1013.5 mb 0.00 in0.0 mm 0.00 in0.0 mm 0.20 in5.1 mm
01:35 PM 19.3°F-7.1°C 16.0°F-8.9°C 87% 16.0 mph W25.7 kmh W -- 29.93 in1013.5 mb 0.00 in0.0 mm 0.00 in0.0 mm 0.20 in5.1 mm
01:40 PM 19.5°F-6.9°C 16.2°F-8.8°C 86% 7.0 mph W11.3 kmh W -- 29.93 in1013.5 mb 0.00 in0.0 mm 0.00 in0.0 mm 0.20 in5.1 mm
01:45 PM 19.8°F-6.8°C 16.3°F-8.7°C 86% 9.0 mph W14.5 kmh W -- 29.94 in1013.9 mb 0.00 in0.0 mm 0.00 in0.0 mm 0.20 in5.1 mm
01:50 PM 19.8°F-6.8°C 16.0°F-8.9°C 85% 13.0 mph W20.9 kmh W -- 29.93 in1013.5 mb 0.00 in0.0 mm 0.00 in0.0 mm 0.20 in5.1 mm
01:55 PM 20.0°F-6.7°C 16.2°F-8.8°C 85% 7.0 mph W11.3 kmh W 18.0 mph29.0 kmh 29.93 in1013.5 mb 0.00 in0.0 mm 0.00 in0.0 mm 0.20 in5.1 mm
02:00 PM 20.0°F-6.7°C 16.0°F-8.9°C 84% 9.0 mph W14.5 kmh W -- 29.93 in1013.5 mb 0.00 in0.0 mm 0.00 in0.0 mm 0.20 in5.1 mm
02:05 PM 20.2°F-6.6°C 16.2°F-8.8°C 84% 6.0 mph W9.7 kmh W -- 29.93 in1013.5 mb 0.00 in0.0 mm 0.00 in0.0 mm 0.20 in5.1 mm
02:10 PM 20.3°F-6.5°C 16.5°F-8.6°C 85% 5.0 mph W8.0 kmh W -- 29.93 in1013.5 mb 0.00 in0.0 mm 0.00 in0.0 mm 0.20 in5.1 mm
02:15 PM 20.3°F-6.5°C 16.3°F-8.7°C 84% 9.0 mph W14.5 kmh W -- 29.94 in1013.9 mb 0.00 in0.0 mm 0.00 in0.0 mm 0.20 in5.1 mm
02:20 PM 20.3°F-6.5°C 16.3°F-8.7°C 84% 14.0 mph W22.5 kmh W 22.0 mph35.4 kmh 29.93 in1013.5 mb 0.00 in0.0 mm 0.00 in0.0 mm 0.20 in5.1 mm
02:25 PM 20.3°F-6.5°C 16.3°F-8.7°C 84% 7.0 mph W11.3 kmh W -- 29.93 in1013.5 mb 0.00 in0.0 mm 0.00 in0.0 mm 0.20 in5.1 mm
02:30 PM 20.3°F-6.5°C 16.3°F-8.7°C 84% 15.0 mph W24.1 kmh W -- 29.93 in1013.5 mb 0.00 in0.0 mm 0.00 in0.0 mm 0.20 in5.1 mm
02:35 PM 20.3°F-6.5°C 16.0°F-8.9°C 83% 10.0 mph W16.1 kmh W -- 29.93 in1013.5 mb 0.00 in0.0 mm 0.00 in0.0 mm 0.20 in5.1 mm
02:40 PM 20.3°F-6.5°C 16.0°F-8.9°C 83% 9.0 mph W14.5 kmh W -- 29.92 in1013.2 mb 0.00 in0.0 mm 0.00 in0.0 mm 0.20 in5.1 mm
02:45 PM 20.5°F-6.4°C 16.2°F-8.8°C 83% 9.0 mph W14.5 kmh W 20.0 mph32.2 kmh 29.93 in1013.5 mb 0.00 in0.0 mm 0.00 in0.0 mm 0.20 in5.1 mm
02:50 PM 20.6°F-6.3°C 16.3°F-8.7°C 83% 5.0 mph W8.0 kmh W -- 29.92 in1013.2 mb 0.00 in0.0 mm 0.00 in0.0 mm 0.20 in5.1 mm
02:55 PM 20.9°F-6.2°C 16.5°F-8.6°C 83% 6.0 mph W9.7 kmh W -- 29.92 in1013.2 mb 0.00 in0.0 mm 0.00 in0.0 mm 0.20 in5.1 mm
03:00 PM 20.9°F-6.2°C 16.5°F-8.6°C 83% 6.0 mph W9.7 kmh W -- 29.93 in1013.5 mb 0.00 in0.0 mm 0.00 in0.0 mm 0.20 in5.1 mm
03:05 PM 20.9°F-6.2°C 16.5°F-8.6°C 83% 5.0 mph W8.0 kmh W -- 29.93 in1013.5 mb 0.00 in0.0 mm 0.00 in0.0 mm 0.20 in5.1 mm
03:10 PM 20.8°F-6.2°C 16.2°F-8.8°C 82% 5.0 mph W8.0 kmh W 18.0 mph29.0 kmh 29.93 in1013.5 mb 0.00 in0.0 mm 0.00 in0.0 mm 0.20 in5.1 mm
03:15 PM 20.9°F-6.2°C 16.2°F-8.8°C 82% 8.0 mph W12.9 kmh W -- 29.93 in1013.5 mb 0.00 in0.0 mm 0.00 in0.0 mm 0.20 in5.1 mm
03:20 PM 20.9°F-6.2°C 16.2°F-8.8°C 82% 4.0 mph W6.4 kmh W -- 29.93 in1013.5 mb 0.00 in0.0 mm 0.00 in0.0 mm 0.20 in5.1 mm
03:25 PM 21.1°F-6.1°C 16.3°F-8.7°C 82% 10.0 mph W16.1 kmh W -- 29.93 in1013.5 mb 0.00 in0.0 mm 0.00 in0.0 mm 0.20 in5.1 mm
03:30 PM 21.3°F-5.9°C 16.7°F-8.5°C 82% 12.0 mph W19.3 kmh W -- 29.93 in1013.5 mb 0.00 in0.0 mm 0.00 in0.0 mm 0.20 in5.1 mm
03:35 PM 21.3°F-5.9°C 16.7°F-8.5°C 82% 10.0 mph W16.1 kmh W 15.0 mph24.1 kmh 29.92 in1013.2 mb 0.00 in0.0 mm 0.00 in0.0 mm 0.20 in5.1 mm
03:40 PM 21.2°F-6.0°C 16.3°F-8.7°C 81% 6.0 mph W9.7 kmh W -- 29.92 in1013.2 mb 0.00 in0.0 mm 0.00 in0.0 mm 0.20 in5.1 mm
03:45 PM 21.3°F-5.9°C 16.5°F-8.6°C 81% 11.0 mph W17.7 kmh W -- 29.91 in1012.9 mb 0.00 in0.0 mm 0.00 in0.0 mm 0.20 in5.1 mm
03:50 PM 21.2°F-6.0°C 16.3°F-8.7°C 81% 10.0 mph W16.1 kmh W -- 29.91 in1012.9 mb 0.00 in0.0 mm 0.00 in0.0 mm 0.20 in5.1 mm
03:55 PM 21.1°F-6.1°C 15.8°F-9.0°C 80% 12.0 mph W19.3 kmh W -- 29.91 in1012.9 mb 0.00 in0.0 mm 0.00 in0.0 mm 0.20 in5.1 mm
04:00 PM 21.3°F-5.9°C 16.5°F-8.6°C 81% 6.0 mph W9.7 kmh W 16.0 mph25.7 kmh 29.93 in1013.5 mb 0.00 in0.0 mm 0.00 in0.0 mm 0.20 in5.1 mm
04:05 PM 21.5°F-5.8°C 16.3°F-8.7°C 80% 9.0 mph W14.5 kmh W -- 29.93 in1013.5 mb 0.00 in0.0 mm 0.00 in0.0 mm 0.20 in5.1 mm
04:10 PM 21.7°F-5.7°C 16.9°F-8.4°C 81% 9.0 mph W14.5 kmh W -- 29.92 in1013.2 mb 0.00 in0.0 mm 0.00 in0.0 mm 0.20 in5.1 mm
04:15 PM 21.7°F-5.7°C 16.5°F-8.6°C 80% 3.0 mph W4.8 kmh W -- 29.92 in1013.2 mb 0.00 in0.0 mm 0.00 in0.0 mm 0.20 in5.1 mm
04:20 PM 21.8°F-5.7°C 16.5°F-8.6°C 80% 5.0 mph W8.0 kmh W -- 29.92 in1013.2 mb 0.00 in0.0 mm 0.00 in0.0 mm 0.20 in5.1 mm
04:25 PM 21.9°F-5.6°C 16.7°F-8.5°C 80% 7.0 mph W11.3 kmh W 14.0 mph22.5 kmh 29.93 in1013.5 mb 0.00 in0.0 mm 0.00 in0.0 mm 0.20 in5.1 mm
04:30 PM 22.4°F-5.3°C 17.2°F-8.2°C 80% 7.0 mph W11.3 kmh W -- 29.93 in1013.5 mb 0.00 in0.0 mm 0.00 in0.0 mm 0.20 in5.1 mm
04:35 PM 22.7°F-5.2°C 17.1°F-8.3°C 79% 11.0 mph W17.7 kmh W -- 29.92 in1013.2 mb 0.00 in0.0 mm 0.00 in0.0 mm 0.20 in5.1 mm
04:40 PM 22.6°F-5.2°C 16.9°F-8.4°C 78% 6.0 mph W9.7 kmh W -- 29.92 in1013.2 mb 0.00 in0.0 mm 0.00 in0.0 mm 0.20 in5.1 mm
04:45 PM 22.7°F-5.2°C 17.1°F-8.3°C 79% 8.0 mph W12.9 kmh W -- 29.92 in1013.2 mb 0.00 in0.0 mm 0.00 in0.0 mm 0.20 in5.1 mm
04:50 PM 22.6°F-5.2°C 16.9°F-8.4°C 78% 4.0 mph W6.4 kmh W 17.0 mph27.4 kmh 29.92 in1013.2 mb 0.00 in0.0 mm 0.00 in0.0 mm 0.20 in5.1 mm
04:55 PM 22.4°F-5.3°C 16.7°F-8.5°C 78% 10.0 mph W16.1 kmh W -- 29.93 in1013.5 mb 0.00 in0.0 mm 0.00 in0.0 mm 0.20 in5.1 mm
05:00 PM 22.2°F-5.4°C 16.5°F-8.6°C 78% 9.0 mph W14.5 kmh W -- 29.92 in1013.2 mb 0.00 in0.0 mm 0.00 in0.0 mm 0.20 in5.1 mm
05:05 PM 21.9°F-5.6°C 16.2°F-8.8°C 78% 7.0 mph W11.3 kmh W -- 29.93 in1013.5 mb 0.00 in0.0 mm 0.00 in0.0 mm 0.20 in5.1 mm
05:10 PM 21.9°F-5.6°C 16.2°F-8.8°C 78% 6.0 mph W9.7 kmh W -- 29.93 in1013.5 mb 0.00 in0.0 mm 0.00 in0.0 mm 0.20 in5.1 mm
05:15 PM 21.8°F-5.7°C 16.0°F-8.9°C 78% 7.0 mph W11.3 kmh W 15.0 mph24.1 kmh 29.93 in1013.5 mb 0.00 in0.0 mm 0.00 in0.0 mm 0.20 in5.1 mm
05:20 PM 21.6°F-5.8°C 15.8°F-9.0°C 78% 9.0 mph W14.5 kmh W -- 29.93 in1013.5 mb 0.00 in0.0 mm 0.00 in0.0 mm 0.20 in5.1 mm
05:25 PM 21.4°F-5.9°C 15.6°F-9.1°C 78% 11.0 mph W17.7 kmh W -- 29.94 in1013.9 mb 0.00 in0.0 mm 0.00 in0.0 mm 0.20 in5.1 mm
05:30 PM 21.4°F-5.9°C 16.0°F-8.9°C 79% 4.0 mph W6.4 kmh W -- 29.94 in1013.9 mb 0.00 in0.0 mm 0.00 in0.0 mm 0.20 in5.1 mm
05:35 PM 21.3°F-5.9°C 16.0°F-8.9°C 79% 11.0 mph W17.7 kmh W -- 29.94 in1013.9 mb 0.00 in0.0 mm 0.00 in0.0 mm 0.20 in5.1 mm
05:40 PM 21.3°F-5.9°C 16.0°F-8.9°C 79% 9.0 mph W14.5 kmh W 14.0 mph22.5 kmh 29.94 in1013.9 mb 0.00 in0.0 mm 0.00 in0.0 mm 0.20 in5.1 mm
05:45 PM 21.2°F-6.0°C 15.8°F-9.0°C 79% 10.0 mph W16.1 kmh W -- 29.94 in1013.9 mb 0.00 in0.0 mm 0.00 in0.0 mm 0.20 in5.1 mm
05:50 PM 21.0°F-6.1°C 15.6°F-9.1°C 79% 14.0 mph W22.5 kmh W -- 29.95 in1014.2 mb 0.00 in0.0 mm 0.00 in0.0 mm 0.20 in5.1 mm
05:55 PM 20.9°F-6.2°C 15.4°F-9.2°C 79% 9.0 mph W14.5 kmh W -- 29.95 in1014.2 mb 0.00 in0.0 mm 0.00 in0.0 mm 0.20 in5.1 mm
06:00 PM 20.9°F-6.2°C 15.6°F-9.1°C 80% 3.0 mph W4.8 kmh W -- 29.95 in1014.2 mb 0.00 in0.0 mm 0.00 in0.0 mm 0.20 in5.1 mm
06:05 PM 20.9°F-6.2°C 15.6°F-9.1°C 80% 4.0 mph W6.4 kmh W 13.0 mph20.9 kmh 29.95 in1014.2 mb 0.00 in0.0 mm 0.00 in0.0 mm 0.20 in5.1 mm
06:10 PM 20.8°F-6.2°C 15.6°F-9.1°C 80% 11.0 mph W17.7 kmh W -- 29.95 in1014.2 mb 0.00 in0.0 mm 0.00 in0.0 mm 0.20 in5.1 mm
06:15 PM 20.7°F-6.3°C 15.4°F-9.2°C 80% 7.0 mph W11.3 kmh W -- 29.95 in1014.2 mb 0.00 in0.0 mm 0.00 in0.0 mm 0.20 in5.1 mm
06:20 PM 20.6°F-6.3°C 15.4°F-9.2°C 80% 5.0 mph W8.0 kmh W -- 29.96 in1014.6 mb 0.00 in0.0 mm 0.00 in0.0 mm 0.20 in5.1 mm
06:25 PM 20.5°F-6.4°C 15.3°F-9.3°C 80% 9.0 mph W14.5 kmh W -- 29.96 in1014.6 mb 0.00 in0.0 mm 0.00 in0.0 mm 0.20 in5.1 mm
06:30 PM 20.4°F-6.4°C 15.6°F-9.1°C 81% 7.0 mph W11.3 kmh W 13.0 mph20.9 kmh 29.95 in1014.2 mb 0.00 in0.0 mm 0.00 in0.0 mm 0.20 in5.1 mm
06:35 PM 20.3°F-6.5°C 15.4°F-9.2°C 81% 6.0 mph W9.7 kmh W -- 29.96 in1014.6 mb 0.00 in0.0 mm 0.00 in0.0 mm 0.20 in5.1 mm
06:40 PM 20.2°F-6.6°C 15.3°F-9.3°C 81% 3.0 mph W4.8 kmh W -- 29.96 in1014.6 mb 0.00 in0.0 mm 0.00 in0.0 mm 0.20 in5.1 mm
06:45 PM 20.1°F-6.6°C 15.3°F-9.3°C 81% 9.0 mph W14.5 kmh W -- 29.96 in1014.6 mb 0.00 in0.0 mm 0.00 in0.0 mm 0.20 in5.1 mm
06:50 PM 20.0°F-6.7°C 15.3°F-9.3°C 82% 8.0 mph W12.9 kmh W -- 29.96 in1014.6 mb 0.00 in0.0 mm 0.00 in0.0 mm 0.20 in5.1 mm
06:55 PM 19.9°F-6.7°C 15.3°F-9.3°C 82% 5.0 mph W8.0 kmh W 11.0 mph17.7 kmh 29.97 in1014.9 mb 0.00 in0.0 mm 0.00 in0.0 mm 0.20 in5.1 mm
07:00 PM 19.8°F-6.8°C 15.3°F-9.3°C 82% 2.0 mph W3.2 kmh W -- 29.97 in1014.9 mb 0.00 in0.0 mm 0.00 in0.0 mm 0.20 in5.1 mm
07:05 PM 19.7°F-6.8°C 15.3°F-9.3°C 82% 7.0 mph W11.3 kmh W -- 29.97 in1014.9 mb 0.00 in0.0 mm 0.00 in0.0 mm 0.20 in5.1 mm
07:10 PM 19.6°F-6.9°C 15.1°F-9.4°C 82% 8.0 mph W12.9 kmh W -- 29.97 in1014.9 mb 0.00 in0.0 mm 0.00 in0.0 mm 0.20 in5.1 mm
07:15 PM 19.5°F-6.9°C 15.1°F-9.4°C 82% 4.0 mph W6.4 kmh W -- 29.98 in1015.2 mb 0.00 in0.0 mm 0.00 in0.0 mm 0.20 in5.1 mm
07:20 PM 19.4°F-7.0°C 14.9°F-9.5°C 82% 5.0 mph W8.0 kmh W 11.0 mph17.7 kmh 29.98 in1015.2 mb 0.00 in0.0 mm 0.00 in0.0 mm 0.20 in5.1 mm
07:25 PM 19.4°F-7.0°C 14.9°F-9.5°C 82% 6.0 mph W9.7 kmh W -- 29.98 in1015.2 mb 0.00 in0.0 mm 0.00 in0.0 mm 0.20 in5.1 mm
07:30 PM 19.3°F-7.1°C 14.7°F-9.6°C 82% 3.0 mph W4.8 kmh W -- 29.98 in1015.2 mb 0.00 in0.0 mm 0.00 in0.0 mm 0.20 in5.1 mm
07:35 PM 19.2°F-7.1°C 14.7°F-9.6°C 82% 5.0 mph W8.0 kmh W -- 29.98 in1015.2 mb 0.00 in0.0 mm 0.00 in0.0 mm 0.20 in5.1 mm
07:40 PM 19.1°F-7.2°C 14.7°F-9.6°C 83% Calm Calm -- 29.99 in1015.6 mb 0.00 in0.0 mm 0.00 in0.0 mm 0.20 in5.1 mm
07:45 PM 18.9°F-7.3°C 14.5°F-9.7°C 83% Calm Calm 6.0 mph9.7 kmh 29.98 in1015.2 mb 0.00 in0.0 mm 0.00 in0.0 mm 0.20 in5.1 mm
07:50 PM 18.7°F-7.4°C 14.4°F-9.8°C 83% Calm Calm -- 29.98 in1015.2 mb 0.00 in0.0 mm 0.00 in0.0 mm 0.20 in5.1 mm
07:55 PM 18.5°F-7.5°C 14.2°F-9.9°C 83% Calm Calm -- 29.98 in1015.2 mb 0.00 in0.0 mm 0.00 in0.0 mm 0.20 in5.1 mm
08:00 PM 18.3°F-7.6°C 14.0°F-10.0°C 83% Calm Calm -- 29.99 in1015.6 mb 0.00 in0.0 mm 0.00 in0.0 mm 0.20 in5.1 mm
08:05 PM 18.2°F-7.7°C 14.2°F-9.9°C 84% Calm Calm -- 29.99 in1015.6 mb 0.00 in0.0 mm 0.00 in0.0 mm 0.20 in5.1 mm
08:10 PM 18.1°F-7.7°C 14.2°F-9.9°C 84% Calm Calm -- 29.98 in1015.2 mb 0.00 in0.0 mm 0.00 in0.0 mm 0.20 in5.1 mm
08:15 PM 17.9°F-7.8°C 14.0°F-10.0°C 84% Calm Calm -- 29.99 in1015.6 mb 0.00 in0.0 mm 0.00 in0.0 mm 0.20 in5.1 mm
08:20 PM 17.8°F-7.9°C 13.8°F-10.1°C 84% Calm Calm -- 29.99 in1015.6 mb 0.00 in0.0 mm 0.00 in0.0 mm 0.20 in5.1 mm
08:25 PM 17.7°F-7.9°C 14.0°F-10.0°C 85% Calm Calm -- 29.99 in1015.6 mb 0.00 in0.0 mm 0.00 in0.0 mm 0.20 in5.1 mm
08:30 PM 17.6°F-8.0°C 13.8°F-10.1°C 85% Calm Calm -- 29.99 in1015.6 mb 0.00 in0.0 mm 0.00 in0.0 mm 0.20 in5.1 mm
08:35 PM 17.5°F-8.1°C 13.6°F-10.2°C 85% Calm Calm -- 29.99 in1015.6 mb 0.00 in0.0 mm 0.00 in0.0 mm 0.20 in5.1 mm
08:40 PM 17.5°F-8.1°C 13.6°F-10.2°C 85% Calm Calm -- 29.99 in1015.6 mb 0.00 in0.0 mm 0.00 in0.0 mm 0.20 in5.1 mm
08:45 PM 17.4°F-8.1°C 13.6°F-10.2°C 85% Calm Calm -- 29.99 in1015.6 mb 0.00 in0.0 mm 0.00 in0.0 mm 0.20 in5.1 mm
08:50 PM 17.2°F-8.2°C 13.5°F-10.3°C 85% Calm Calm -- 30.00 in1015.9 mb 0.00 in0.0 mm 0.00 in0.0 mm 0.20 in5.1 mm
08:55 PM 17.1°F-8.3°C 13.3°F-10.4°C 85% Calm Calm -- 30.00 in1015.9 mb 0.00 in0.0 mm 0.00 in0.0 mm 0.20 in5.1 mm
09:00 PM 16.9°F-8.4°C 13.5°F-10.3°C 86% Calm Calm -- 30.00 in1015.9 mb 0.00 in0.0 mm 0.00 in0.0 mm 0.20 in5.1 mm
09:05 PM 16.7°F-8.5°C 13.3°F-10.4°C 86% Calm Calm -- 30.00 in1015.9 mb 0.00 in0.0 mm 0.00 in0.0 mm 0.20 in5.1 mm
09:10 PM 16.5°F-8.6°C 13.1°F-10.5°C 86% Calm Calm -- 30.00 in1015.9 mb 0.00 in0.0 mm 0.00 in0.0 mm 0.20 in5.1 mm
09:15 PM 16.4°F-8.7°C 12.9°F-10.6°C 86% Calm Calm -- 30.01 in1016.3 mb 0.00 in0.0 mm 0.00 in0.0 mm 0.20 in5.1 mm
09:20 PM 16.3°F-8.7°C 12.9°F-10.6°C 86% Calm Calm -- 30.01 in1016.3 mb 0.00 in0.0 mm 0.00 in0.0 mm 0.20 in5.1 mm
09:25 PM 16.1°F-8.8°C 12.9°F-10.6°C 87% Calm Calm -- 30.01 in1016.3 mb 0.00 in0.0 mm 0.00 in0.0 mm 0.20 in5.1 mm
09:30 PM 16.0°F-8.9°C 12.7°F-10.7°C 87% Calm Calm -- 30.02 in1016.6 mb 0.00 in0.0 mm 0.00 in0.0 mm 0.20 in5.1 mm
09:35 PM 16.0°F-8.9°C 12.7°F-10.7°C 87% Calm Calm -- 30.02 in1016.6 mb 0.00 in0.0 mm 0.00 in0.0 mm 0.20 in5.1 mm
09:40 PM 16.0°F-8.9°C 13.1°F-10.5°C 88% Calm Calm -- 30.02 in1016.6 mb 0.00 in0.0 mm 0.00 in0.0 mm 0.20 in5.1 mm
09:45 PM 16.0°F-8.9°C 12.7°F-10.7°C 87% Calm Calm -- 30.03 in1016.9 mb 0.00 in0.0 mm 0.00 in0.0 mm 0.20 in5.1 mm
09:50 PM 15.9°F-8.9°C 13.1°F-10.5°C 88% 2.0 mph W3.2 kmh W 6.0 mph9.7 kmh 30.03 in1016.9 mb 0.00 in0.0 mm 0.00 in0.0 mm 0.20 in5.1 mm
09:55 PM 15.9°F-8.9°C 13.1°F-10.5°C 88% Calm Calm -- 30.03 in1016.9 mb 0.00 in0.0 mm 0.00 in0.0 mm 0.20 in5.1 mm
10:00 PM 16.0°F-8.9°C 13.1°F-10.5°C 88% Calm Calm -- 30.02 in1016.6 mb 0.00 in0.0 mm 0.00 in0.0 mm 0.20 in5.1 mm
10:05 PM 16.0°F-8.9°C 13.1°F-10.5°C 88% Calm Calm -- 30.02 in1016.6 mb 0.00 in0.0 mm 0.00 in0.0 mm 0.20 in5.1 mm
10:10 PM 16.0°F-8.9°C 13.1°F-10.5°C 88% Calm Calm -- 30.02 in1016.6 mb 0.00 in0.0 mm 0.00 in0.0 mm 0.20 in5.1 mm
10:15 PM 16.1°F-8.8°C 13.5°F-10.3°C 89% Calm Calm 5.0 mph8.0 kmh 30.02 in1016.6 mb 0.00 in0.0 mm 0.00 in0.0 mm 0.20 in5.1 mm
10:20 PM 16.1°F-8.8°C 13.3°F-10.4°C 88% Calm Calm -- 30.02 in1016.6 mb 0.00 in0.0 mm 0.00 in0.0 mm 0.20 in5.1 mm
10:25 PM 16.1°F-8.8°C 13.3°F-10.4°C 88% Calm Calm -- 30.02 in1016.6 mb 0.00 in0.0 mm 0.00 in0.0 mm 0.20 in5.1 mm
10:30 PM 16.1°F-8.8°C 13.3°F-10.4°C 88% Calm Calm -- 30.02 in1016.6 mb 0.00 in0.0 mm 0.00 in0.0 mm 0.20 in5.1 mm
10:35 PM 16.0°F-8.9°C 13.3°F-10.4°C 89% Calm Calm -- 30.02 in1016.6 mb 0.00 in0.0 mm 0.00 in0.0 mm 0.20 in5.1 mm
10:40 PM 15.9°F-8.9°C 13.3°F-10.4°C 89% Calm Calm -- 30.02 in1016.6 mb 0.00 in0.0 mm 0.00 in0.0 mm 0.20 in5.1 mm
10:45 PM 15.9°F-8.9°C 13.3°F-10.4°C 89% Calm Calm -- 30.02 in1016.6 mb 0.00 in0.0 mm 0.00 in0.0 mm 0.20 in5.1 mm
10:50 PM 15.8°F-9.0°C 13.1°F-10.5°C 89% Calm Calm -- 30.01 in1016.3 mb 0.00 in0.0 mm 0.00 in0.0 mm 0.20 in5.1 mm
10:55 PM 15.8°F-9.0°C 13.1°F-10.5°C 89% Calm Calm -- 30.01 in1016.3 mb 0.00 in0.0 mm 0.00 in0.0 mm 0.20 in5.1 mm
11:00 PM 15.7°F-9.1°C 12.7°F-10.7°C 88% Calm Calm -- 30.01 in1016.3 mb 0.00 in0.0 mm 0.00 in0.0 mm 0.20 in5.1 mm
11:05 PM 15.6°F-9.1°C 12.9°F-10.6°C 89% Calm Calm -- 30.01 in1016.3 mb 0.00 in0.0 mm 0.00 in0.0 mm 0.20 in5.1 mm
11:10 PM 15.6°F-9.1°C 12.9°F-10.6°C 89% Calm Calm -- 30.01 in1016.3 mb 0.00 in0.0 mm 0.00 in0.0 mm 0.20 in5.1 mm
11:15 PM 15.6°F-9.1°C 12.9°F-10.6°C 89% Calm Calm -- 30.01 in1016.3 mb 0.00 in0.0 mm 0.00 in0.0 mm 0.20 in5.1 mm
11:20 PM 15.5°F-9.2°C 12.7°F-10.7°C 89% Calm Calm -- 30.01 in1016.3 mb 0.00 in0.0 mm 0.00 in0.0 mm 0.20 in5.1 mm
11:25 PM 15.5°F-9.2°C 12.7°F-10.7°C 89% Calm Calm -- 30.01 in1016.3 mb 0.00 in0.0 mm 0.00 in0.0 mm 0.20 in5.1 mm
11:30 PM 15.4°F-9.2°C 12.7°F-10.7°C 89% Calm Calm -- 30.01 in1016.3 mb 0.00 in0.0 mm 0.00 in0.0 mm 0.20 in5.1 mm
11:35 PM 15.4°F-9.2°C 12.7°F-10.7°C 89% Calm Calm -- 30.01 in1016.3 mb 0.00 in0.0 mm 0.00 in0.0 mm 0.20 in5.1 mm
11:40 PM 15.4°F-9.2°C 12.7°F-10.7°C 89% Calm Calm -- 30.00 in1015.9 mb 0.00 in0.0 mm 0.00 in0.0 mm 0.20 in5.1 mm
11:45 PM 15.3°F-9.3°C 12.6°F-10.8°C 89% Calm Calm -- 30.01 in1016.3 mb 0.00 in0.0 mm 0.00 in0.0 mm 0.20 in5.1 mm
11:50 PM 15.2°F-9.3°C 12.6°F-10.8°C 89% Calm Calm -- 30.00 in1015.9 mb 0.00 in0.0 mm 0.00 in0.0 mm 0.20 in5.1 mm
11:55 PM 15.2°F-9.3°C 12.6°F-10.8°C 89% Calm Calm -- 30.00 in1015.9 mb 0.00 in0.0 mm 0.00 in0.0 mm 0.20 in5.1 mm